Airfield :
LOGIN :

Register | Disclaimer

   EN    FR    IT 

 










Legend :    VFR   Marginal VFR   IFR   Intensive IFR   Very Intensive IFR
Visi :
Ceiling :
>= 8 km
>= 3000ft
5 to 8 km
1000 to 3000 ft
1500m to 5 km
500 to 1000 ft
800 to 1500m
200 to 500 ft
< 800m
< 200 ft
Symbols :   Thunderstorms  Fog  Heavy snow  Heavy precipitations  Wind > 20 kt
SIGMETs :     Misc.  Thunderstorms  Icing  Turbulence  Mountain Waves  Volcanic Ashes







- Airport Elevation : 1487 ft
- IATA code : MUC


EDDM - München Franz Josef Strauss

CURRENT METAR :
  • 262120Z 28001KT CAVOK 08/07 Q1023 NOSIG

EXPIRED METARs :
  • 262050Z VRB02KT CAVOK 08/08 Q1023 NOSIG
  • 262020Z VRB01KT CAVOK 09/08 Q1023 NOSIG
  • 261950Z VRB01KT CAVOK 09/08 Q1023 NOSIG
  • 261920Z 05003KT 010V080 CAVOK 12/10 Q1023 NOSIG
  • 261850Z 04003KT CAVOK 11/09 Q1022 NOSIG

TAF TAF EDDM
Valid from the 26 at 18:00 until the 28 at 00:00 UTC


261700Z 2618/2724 05002KT 9000 NSC
BECMG 2620/2622 1200 BCFG
BECMG 2622/2624 0300 FG VV001
BECMG 2708/2710 4000 BR BKN003
BECMG 2710/2712 8000 FEW008
BECMG 2722/2724 1200 BCFG
No reported NOTAMs for that airfield.



MET'MAP, your aeronautical weather chart ! - Copyright ORBIFLY December 2007 - Disclaimer

ORBIFLY MET'MAP TEAM :

Programming & Development : Alexandra Zaïnal
Concept & Development : Baudouin d'Aumeries
Co-Development & Prog : Marc-Olivier Méhu
Technical & hardware support : Manuel Goepfert

Contact : metmap@orbifly.com




SOURCES & CREDITS :

   NOAA